Home   Weather   India   Kodaikanal   Past weeks
Flag for India

Past Weather in Kodaikanal, Tamil Nadu, India — Yesterday and Last 2 Weeks

Currently: 75 °F. Fog. (Weather station: Coimbatore / Peelamedu, India). See more current weather

Past Weather in Kodaikanal — Graph

°F

Kodaikanal Temperature Yesterday

Maximum temperature yesterday: 84 °F (at 11:30 am)
Minimum temperature yesterday: 68 °F (at 3:30 am)
Average temperature yesterday: 76 °F

High & Low Weather Summary for the Past Weeks

 TemperatureHumidityPressure
High88 °F (Nov 21, 2:30 pm)100% (Nov 17, 2:00 am)30.01 "Hg (Nov 17, 2:00 am)
Low64 °F (Nov 20, 6:30 am)38% (Nov 19, 2:00 pm)29.80 "Hg (Nov 20, 2:00 pm)
Average78 °F73%29.90 "Hg
* Reported Nov 17 12:30 am — Dec 2 1:00 am, Kodaikanal. Weather by CustomWeather, © 2022

Note: Actual official high and low records may vary slightly from our data, if they occured in-between our weather recording intervals... More about our weather records

Kodaikanal Weather History for the Previous 24 Hours

Scroll right to see more
 ConditionsComfort  
Time TempWeatherWind HumidityBarometerVisibility
1:00 am
Fri, Dec 2
75 °FFog.3 mph83%29.89 "Hg2 mi
12:30 am75 °FFog.3 mph83%29.89 "Hg2 mi
11:30 pm
Thu, Dec 1
75 °FFog.No wind83%29.92 "Hg2 mi
11:00 pm75 °FFog.No wind78%29.92 "Hg2 mi
10:30 pm75 °FFog.No wind78%29.92 "Hg2 mi
10:00 pm77 °FFog.No wind79%29.95 "Hg2 mi
9:30 pm77 °FPassing clouds.No wind74%29.95 "Hg2 mi
9:00 pm77 °FPassing clouds.No wind74%29.92 "Hg2 mi
8:30 pm77 °FPassing clouds.3 mph74%29.92 "Hg2 mi
8:00 pm79 °FPassing clouds.3 mph74%29.92 "Hg2 mi
7:30 pm79 °FPassing clouds.3 mph74%29.92 "Hg2 mi
6:30 pm79 °FPassing clouds.3 mph70%29.86 "Hg2 mi
6:00 pm81 °FHaze.3 mph66%29.86 "Hg2 mi
5:30 pm81 °FHaze.3 mph66%29.86 "Hg2 mi
5:00 pm82 °FHaze.7 mph58%29.83 "Hg2 mi
4:30 pm82 °FHaze.6 mph58%29.83 "Hg2 mi
3:30 pm84 °FBroken clouds.9 mph55%29.83 "Hg2 mi
3:00 pm82 °FBroken clouds.7 mph55%29.83 "Hg2 mi
2:30 pm82 °FBroken clouds.7 mph55%29.86 "Hg2 mi
1:30 pm82 °FBroken clouds.7 mph55%29.86 "Hg2 mi
1:00 pm84 °FScattered clouds.9 mph48%29.89 "Hg3 mi
12:30 pm84 °FScattered clouds.9 mph51%29.89 "Hg3 mi
11:30 am84 °FScattered clouds.6 mph51%29.95 "Hg2 mi
11:00 am82 °FScattered clouds.7 mph58%29.95 "Hg2 mi
10:30 am82 °FScattered clouds.7 mph58%29.95 "Hg2 mi
10:00 am81 °FScattered clouds.6 mph62%29.98 "Hg2 mi
9:30 am81 °FHaze.6 mph62%30.01 "Hg1 mi
9:00 am79 °FHaze.7 mph61%29.98 "Hg1 mi
8:30 am75 °FFog.6 mph74%29.98 "Hg1 mi
8:00 am72 °FFog.3 mph78%29.98 "Hg1 mi
7:30 am70 °FFog.2 mph88%29.95 "Hg1 mi
7:00 am68 °FFog.1 mph94%29.95 "Hg1 mi
6:30 am68 °FFog.2 mph94%29.95 "Hg1 mi
5:00 am68 °FFog.2 mph94%29.92 "Hg1 mi
4:30 am68 °FFog.2 mph94%29.92 "Hg1 mi
4:00 am68 °FFog.5 mph94%29.89 "Hg1 mi
3:30 am68 °FFog.5 mph94%29.89 "Hg1 mi
3:00 am70 °FFog.2 mph88%29.92 "Hg1 mi
2:30 am70 °FFog.No wind88%29.92 "Hg1 mi
2:00 am70 °FFog.2 mph94%29.92 "Hg1 mi
Weather by CustomWeather, © 2022

See weather overview